createdAt,value
2022-08-26T00:04:25.976Z,15.07
2022-08-26T00:09:24.820Z,14.15
2022-08-26T00:14:27.015Z,9.13
2022-08-26T00:19:26.135Z,12.10
2022-08-26T00:24:22.745Z,13.73
2022-08-26T00:34:19.296Z,21.65
2022-08-26T00:39:16.041Z,15.18
2022-08-26T00:44:13.122Z,13.98
2022-08-26T00:49:15.973Z,13.70
2022-08-26T00:54:13.405Z,11.73
2022-08-26T00:59:12.111Z,11.02
2022-08-26T01:04:10.609Z,13.07
2022-08-26T01:09:07.973Z,10.00
2022-08-26T01:14:07.897Z,12.77
2022-08-26T01:19:43.507Z,16.73
2022-08-26T01:24:41.472Z,15.75
2022-08-26T01:29:42.890Z,11.88
2022-08-26T01:34:40.745Z,15.35
2022-08-26T01:39:37.805Z,15.32
2022-08-26T01:44:38.731Z,17.30
2022-08-26T01:49:36.922Z,15.82
2022-08-26T01:54:33.753Z,15.68
2022-08-26T01:59:30.669Z,20.97
2022-08-26T02:04:37.790Z,15.33
2022-08-26T02:09:41.295Z,14.18
2022-08-26T02:14:43.613Z,12.73
2022-08-26T02:19:45.550Z,12.05
2022-08-26T02:24:57.342Z,18.20
2022-08-26T02:29:58.880Z,13.70
2022-08-26T02:34:55.360Z,11.15
2022-08-26T02:39:52.293Z,16.30
2022-08-26T02:44:49.358Z,12.82
2022-08-26T02:49:47.258Z,15.50
2022-08-26T02:54:44.069Z,10.90
2022-08-26T02:59:41.921Z,13.50
2022-08-26T03:04:40.094Z,22.98
2022-08-26T03:09:36.503Z,15.88
2022-08-26T03:14:33.196Z,25.88
2022-08-26T03:19:31.199Z,14.77
2022-08-26T03:24:27.871Z,19.83
2022-08-26T03:29:43.539Z,23.67
2022-08-26T03:34:39.988Z,18.05
2022-08-26T03:39:36.903Z,16.92
2022-08-26T03:44:33.302Z,23.23
2022-08-26T03:49:31.803Z,15.23
2022-08-26T03:54:28.987Z,13.98
2022-08-26T03:59:26.648Z,19.20
2022-08-26T04:04:24.538Z,17.73
2022-08-26T04:09:21.074Z,15.83
2022-08-26T04:14:21.069Z,11.10
2022-08-26T04:19:19.241Z,17.92
2022-08-26T04:24:16.811Z,14.63
2022-08-26T04:29:20.664Z,21.88
2022-08-26T04:34:17.639Z,21.88
2022-08-26T04:39:18.725Z,14.03
2022-08-26T04:44:16.797Z,19.30
2022-08-26T04:54:10.480Z,13.85
2022-08-26T05:04:13.945Z,22.13
2022-08-26T05:09:15.287Z,19.10
2022-08-26T05:14:12.007Z,25.77
2022-08-26T05:19:08.732Z,24.67
2022-08-26T05:24:05.855Z,25.53
2022-08-26T05:29:02.734Z,20.45
2022-08-26T05:34:03.736Z,20.38
2022-08-26T05:39:01.906Z,20.77
2022-08-26T05:43:59.983Z,16.98
2022-08-26T05:48:57.138Z,18.63
2022-08-26T05:53:54.911Z,20.52
2022-08-26T05:58:52.114Z,16.85
2022-08-26T06:03:51.667Z,14.80
2022-08-26T06:08:48.617Z,21.92
2022-08-26T06:13:46.300Z,17.15
2022-08-26T06:23:59.447Z,30.10
2022-08-26T06:28:57.696Z,22.40
2022-08-26T06:33:54.918Z,22.50
2022-08-26T06:38:52.754Z,30.48
2022-08-26T06:43:49.710Z,27.65
2022-08-26T06:48:46.413Z,16.73
2022-08-26T06:53:48.247Z,18.02
2022-08-26T06:58:45.253Z,21.88
2022-08-26T07:03:43.220Z,26.05
2022-08-26T07:08:42.903Z,21.23
2022-08-26T07:13:39.769Z,21.85
2022-08-26T07:18:37.010Z,25.60
2022-08-26T07:23:36.765Z,17.88
2022-08-26T07:33:29.745Z,22.70
2022-08-26T07:38:27.286Z,27.52
2022-08-26T07:48:21.529Z,20.67
2022-08-26T07:53:18.225Z,22.67
2022-08-26T07:58:16.912Z,26.92
2022-08-26T08:03:14.931Z,25.83
2022-08-26T08:08:26.522Z,18.90
2022-08-26T08:13:24.576Z,26.55
2022-08-26T08:18:23.062Z,27.20
2022-08-26T08:23:19.762Z,23.58
2022-08-26T08:28:17.767Z,22.52
2022-08-26T08:33:14.170Z,31.90
2022-08-26T08:38:11.669Z,21.75
2022-08-26T08:43:41.908Z,27.75
2022-08-26T08:48:56.786Z,24.77
2022-08-26T08:53:56.127Z,28.02
2022-08-26T08:59:11.127Z,25.88
2022-08-26T09:04:54.096Z,20.67
2022-08-26T09:09:59.891Z,25.50
2022-08-26T09:15:16.642Z,24.88
2022-08-26T09:20:23.958Z,20.97
2022-08-26T09:25:20.408Z,22.45
2022-08-26T09:30:31.637Z,23.73
2022-08-26T09:35:35.641Z,22.85
2022-08-26T09:40:35.301Z,27.60
2022-08-26T09:45:32.319Z,24.73
2022-08-26T09:50:33.352Z,24.60
2022-08-26T09:55:29.744Z,24.15
2022-08-26T10:00:39.913Z,23.65
2022-08-26T10:05:54.776Z,24.67
2022-08-26T10:10:53.296Z,22.77
2022-08-26T10:16:03.644Z,29.48
2022-08-26T10:21:43.394Z,28.48
2022-08-26T10:27:02.108Z,25.33
2022-08-26T10:32:03.536Z,25.33
2022-08-26T10:37:16.034Z,31.38
2022-08-26T10:42:27.481Z,24.27
2022-08-26T10:47:37.512Z,35.80
2022-08-26T10:52:43.416Z,43.10
2022-08-26T10:57:50.052Z,40.22
2022-08-26T11:02:50.340Z,39.90
2022-08-26T11:08:13.547Z,34.42
2022-08-26T11:13:10.524Z,38.40
2022-08-26T11:18:10.612Z,40.97
2022-08-26T11:23:13.071Z,47.42
2022-08-26T11:28:09.725Z,48.67
2022-08-26T11:38:12.900Z,46.08
2022-08-26T11:43:19.443Z,49.20
2022-08-26T11:48:22.577Z,46.15
2022-08-26T11:53:22.595Z,43.83
2022-08-26T11:58:21.353Z,51.25
2022-08-26T12:03:23.845Z,48.58
2022-08-26T12:08:24.823Z,42.90
2022-08-26T12:13:26.614Z,46.25
2022-08-26T12:18:34.716Z,43.05
2022-08-26T12:23:45.883Z,39.70
2022-08-26T12:28:45.848Z,44.33
2022-08-26T12:33:42.517Z,39.65
2022-08-26T12:38:40.396Z,42.30
2022-08-26T12:43:45.346Z,40.72
2022-08-26T12:48:44.179Z,34.03
2022-08-26T12:53:44.088Z,32.80
2022-08-26T12:58:40.767Z,36.38
2022-08-26T13:03:46.232Z,37.10
2022-08-26T13:09:07.691Z,30.75
2022-08-26T13:14:18.446Z,39.42
2022-08-26T13:19:23.478Z,38.72
2022-08-26T13:24:23.094Z,29.15
2022-08-26T13:29:19.667Z,35.25
2022-08-26T13:34:19.849Z,33.85
2022-08-26T13:39:17.422Z,29.50
2022-08-26T13:44:14.045Z,40.13
2022-08-26T13:49:10.913Z,28.80
2022-08-26T13:59:05.562Z,27.45
2022-08-26T14:04:03.478Z,26.55
2022-08-26T14:09:00.403Z,27.15
2022-08-26T14:13:56.923Z,28.30
2022-08-26T14:18:54.019Z,33.17
2022-08-26T14:23:50.447Z,33.50
2022-08-26T14:28:46.923Z,30.20
2022-08-26T14:33:43.680Z,28.25
2022-08-26T14:38:40.221Z,28.02
2022-08-26T14:43:47.071Z,25.60
2022-08-26T14:48:43.730Z,24.20
2022-08-26T14:53:58.948Z,24.58
2022-08-26T14:58:55.393Z,23.02
2022-08-26T15:03:52.929Z,27.73
2022-08-26T15:08:49.522Z,25.60
2022-08-26T15:13:46.174Z,19.33
2022-08-26T15:18:42.671Z,23.10
2022-08-26T15:23:39.527Z,19.77
2022-08-26T15:28:37.440Z,21.13
2022-08-26T15:33:36.336Z,24.80
2022-08-26T15:38:35.781Z,32.30
2022-08-26T15:43:33.281Z,19.02
2022-08-26T15:48:29.753Z,18.17
2022-08-26T15:53:28.019Z,19.23
2022-08-26T15:58:27.027Z,19.83
2022-08-26T16:03:23.809Z,17.35
2022-08-26T16:08:20.845Z,15.43
2022-08-26T16:18:15.831Z,21.02
2022-08-26T16:23:12.226Z,20.17
2022-08-26T16:28:11.630Z,30.80
2022-08-26T16:33:09.066Z,21.30
2022-08-26T16:38:06.850Z,11.02
2022-08-26T16:43:04.354Z,12.33
2022-08-26T16:48:00.777Z,13.93
2022-08-26T16:52:57.301Z,11.03
2022-08-26T16:57:54.084Z,12.17
2022-08-26T17:02:50.570Z,10.85
2022-08-26T17:07:47.099Z,12.90
2022-08-26T17:12:43.559Z,14.80
2022-08-26T17:17:40.773Z,12.10
2022-08-26T17:22:40.236Z,10.23
2022-08-26T17:27:36.681Z,21.13
2022-08-26T17:32:33.281Z,13.07
2022-08-26T17:37:29.818Z,17.55
2022-08-26T17:42:31.388Z,19.53
2022-08-26T17:47:28.366Z,15.88
2022-08-26T17:52:24.763Z,17.50
2022-08-26T17:57:21.166Z,17.30
2022-08-26T18:02:17.655Z,17.03
2022-08-26T18:07:15.743Z,20.13
2022-08-26T18:12:12.553Z,13.13
2022-08-26T18:17:09.011Z,16.23
2022-08-26T18:22:06.805Z,23.23
2022-08-26T18:27:03.404Z,18.90
2022-08-26T18:31:59.817Z,16.97
2022-08-26T18:36:56.289Z,15.27
2022-08-26T18:41:53.259Z,17.60
2022-08-26T18:46:51.171Z,15.32
2022-08-26T18:51:50.996Z,13.27
2022-08-26T18:56:47.498Z,16.83
2022-08-26T19:01:45.271Z,11.68
2022-08-26T19:06:41.922Z,17.30
2022-08-26T19:11:42.298Z,12.80
2022-08-26T19:16:42.287Z,13.80
2022-08-26T19:21:39.059Z,9.70
2022-08-26T19:26:36.506Z,11.23
2022-08-26T19:36:29.999Z,12.73
2022-08-26T19:41:36.695Z,11.70
2022-08-26T19:51:31.813Z,10.27
2022-08-26T19:56:29.020Z,10.25
2022-08-26T20:01:26.208Z,10.57
2022-08-26T20:06:22.721Z,7.22
2022-08-26T20:11:19.273Z,11.27
2022-08-26T20:16:16.677Z,10.13
2022-08-26T20:26:29.882Z,9.05
2022-08-26T20:31:27.297Z,11.35
2022-08-26T20:36:26.898Z,9.00
2022-08-26T20:41:25.791Z,6.30
2022-08-26T20:46:24.899Z,8.90
2022-08-26T20:51:23.507Z,12.23
2022-08-26T20:56:23.779Z,8.30
2022-08-26T21:01:24.007Z,7.50
2022-08-26T21:06:20.780Z,8.18
2022-08-26T21:11:18.245Z,8.82
2022-08-26T21:16:14.685Z,7.63
2022-08-26T21:21:11.133Z,10.07
2022-08-26T21:26:10.776Z,9.65
2022-08-26T21:31:09.404Z,11.98
2022-08-26T21:36:07.632Z,9.23
2022-08-26T21:41:09.448Z,9.23
2022-08-26T21:46:14.872Z,8.07
2022-08-26T21:51:13.233Z,5.93
2022-08-26T21:56:12.597Z,10.10
2022-08-26T22:01:15.121Z,6.93
2022-08-26T22:06:11.671Z,14.40
2022-08-26T22:11:09.496Z,6.72
2022-08-26T22:16:07.037Z,8.77
2022-08-26T22:26:02.179Z,5.57
2022-08-26T22:30:58.997Z,6.78
2022-08-26T22:35:55.707Z,6.60
2022-08-26T22:40:57.670Z,15.10
2022-08-26T22:45:55.616Z,9.02
2022-08-26T22:50:58.228Z,7.70
2022-08-26T22:55:56.581Z,6.80
2022-08-26T23:00:53.037Z,6.60
2022-08-26T23:05:52.463Z,7.15
2022-08-26T23:10:51.138Z,13.18
2022-08-26T23:15:47.571Z,11.63
2022-08-26T23:20:44.001Z,14.38
2022-08-26T23:25:40.378Z,7.97
2022-08-26T23:30:37.760Z,12.45
2022-08-26T23:35:34.135Z,13.88
2022-08-26T23:40:33.217Z,10.23
2022-08-26T23:45:30.405Z,12.13
2022-08-26T23:50:48.775Z,12.07
2022-08-26T23:55:48.234Z,9.43
